Palmer, AK

4:32 AM AKDT on March 29, 2015 (GMT -0800)
Birchwood | | Change Station
CLOSE
Current Station
Airport
Location: Birchwood,
Elevation: 95 ft
Nearby Weather Stations

Elev 95 ft 61.42 °N, 149.51 °W | Updated 16 minutes ago

Overcast
Overcast
32 °F
Feels Like 32 °F
N
0
Wind Variable Wind from North

Today
High -- | Low -- °F
--% Chance of Precip.
Yesterday
High -- | Low -- °F
Precip. -- in
7:28 AM 8:35 PM
Waxing Gibbous, 71% visible
Pressure 29.34 in
Visibility 10.0 miles
Clouds Mostly Cloudy 8000 ft
Overcast 9000 ft
Dew Point 28 °F
Humidity 87%
Rainfall 0.00 in
Snow Depth Not available.
UV 0 out of 12
Pollen Not available.
Air Quality Not available.
Flu Activity Not available.
METAR PABV 291216Z AUTO 00000KT 10SM BKN080 OVC090 00/M02 A2934 RMK AO1

More Conditions Fewer Conditions

Pressure 29.34 in
Visibility 10.0 miles
Clouds Mostly Cloudy 8000 ft
Overcast 9000 ft
Dew Point 28 °F
Humidity 87%
Rainfall 0.00 in
Snow Depth Not available.
UV 0 out of 12
Pollen Not available.
Air Quality Not available.
Flu Activity Not available.
METAR PABV 291216Z AUTO 00000KT 10SM BKN080 OVC090 00/M02 A2934 RMK AO1

More Conditions Fewer Conditions

10-Day Weather Forecast

Almanac

Astronomy

Mar. 29, 2015 Rise Set
Actual Time
Civil Twilight
Nautical Twilight
Astronomical Twilight
Moon
Length of Visible Light
Length of Day
Tomorrow will be .
, % of the Moon is Illuminated

Today's Extremes

State Highs State Lows

Community

WunderPhotos

Upload Photos

1,809,230 photos uploaded!

WunderBlogs® & News

Nearby

Air Quality

  Air Quality AQ Index Pollutant
Not available.

Snow Depth

Station Depth Elevation

Earthquake Activity

City Distance Mag. Time & Date
Minimum magnitude displayed is 2.5.

Coastal Water Temperatures

Place Temperature

Stations

Nearby Weather Stations

Station Location Temp. Windchill Dew Point Humidity Wind Precip. Elev Updated Type